DLH911 EDDC-LIEE
Flight info
| Callsign | DLH911 |
|---|---|
| Flight time | 1h 46m |
| Altitude | 37000 |
| Route | MAREM7E MAREM DCT BUDEX DCT TIVAP DCT URAVA/N0449F360 DCT TIBRO/N0450F350 DCT ROSKA DCT TULIK DCT SUKOM DCT OMAKU DCT AMTEL DCT TAQ DCT TINTO DCT ALG DCT KOVAS |
| Aircraft | A320/M-SDE3FGHIRWY/LB1 |
Departure
| Time | 2026-04-27 16:56 |
|---|---|
| Airport | Dresden Airport (EDDC) |
Arrival
| Time | 2026-04-27 18:42 |
|---|---|
| Airport | Cagliari Elmas Airport (LIEE) |
| Time | Latitude | Longitude | Altitude | Speed | Heading |
|---|---|---|---|---|---|
| 2026-04-27 16:15 | 51.12715 | 13.76804 | 753 ft | 0 kts | 41° |
| 2026-04-27 16:49 | 51.12707 | 13.76793 | 753 ft | 3 kts | 41° |
| 2026-04-27 16:49 | 51.12694 | 13.76776 | 753 ft | 2 kts | 41° |
| 2026-04-27 16:49 | 51.12679 | 13.76758 | 754 ft | 3 kts | 15° |
| 2026-04-27 16:49 | 51.12661 | 13.76756 | 754 ft | 3 kts | 337° |
| 2026-04-27 16:50 | 51.12647 | 13.76768 | 754 ft | 0 kts | 304° |
| 2026-04-27 16:52 | 51.12648 | 13.76767 | 754 ft | 3 kts | 304° |
| 2026-04-27 16:52 | 51.12684 | 13.76700 | 754 ft | 10 kts | 311° |
| 2026-04-27 16:52 | 51.12739 | 13.76605 | 754 ft | 13 kts | 314° |
| 2026-04-27 16:53 | 51.12802 | 13.76425 | 753 ft | 14 kts | 248° |
| 2026-04-27 16:53 | 51.12725 | 13.76299 | 753 ft | 17 kts | 220° |
| 2026-04-27 16:53 | 51.12683 | 13.76242 | 754 ft | 6 kts | 220° |
| 2026-04-27 16:53 | 51.12643 | 13.76188 | 755 ft | 8 kts | 220° |
| 2026-04-27 16:54 | 51.12602 | 13.76125 | 751 ft | 8 kts | 238° |
| 2026-04-27 16:54 | 51.12595 | 13.76046 | 758 ft | 7 kts | 284° |
| 2026-04-27 16:54 | 51.12627 | 13.75970 | 751 ft | 10 kts | 307° |
| 2026-04-27 16:54 | 51.12672 | 13.75885 | 760 ft | 10 kts | 312° |
| 2026-04-27 16:55 | 51.12731 | 13.75852 | 764 ft | 10 kts | 6° |
| 2026-04-27 16:55 | 51.12784 | 13.75905 | 754 ft | 0 kts | 41° |
| 2026-04-27 16:55 | 51.12787 | 13.75909 | 755 ft | 0 kts | 41° |
| 2026-04-27 16:55 | 51.12790 | 13.75913 | 755 ft | 10 kts | 41° |
| 2026-04-27 16:56 | 51.13071 | 13.76301 | 750 ft | 93 kts | 41° |
| 2026-04-27 16:56 | 51.13741 | 13.77227 | 735 ft | 159 kts | 41° |
| 2026-04-27 16:56 | 51.14590 | 13.78414 | 1411 ft | 162 kts | 38° |
| 2026-04-27 16:56 | 51.15457 | 13.79617 | 1960 ft | 171 kts | 38° |
| 2026-04-27 16:57 | 51.16420 | 13.80962 | 2145 ft | 199 kts | 39° |
| 2026-04-27 16:57 | 51.17547 | 13.82532 | 2338 ft | 227 kts | 39° |
| 2026-04-27 16:57 | 51.18784 | 13.84241 | 2692 ft | 247 kts | 39° |
| 2026-04-27 16:57 | 51.19969 | 13.86304 | 3267 ft | 258 kts | 56° |
| 2026-04-27 16:58 | 51.20511 | 13.89060 | 3940 ft | 268 kts | 86° |
| 2026-04-27 16:58 | 51.20063 | 13.91959 | 4610 ft | 276 kts | 117° |
| 2026-04-27 16:58 | 51.18880 | 13.94401 | 5306 ft | 280 kts | 131° |
| 2026-04-27 16:58 | 51.17519 | 13.96611 | 5972 ft | 284 kts | 134° |
| 2026-04-27 16:59 | 51.16095 | 13.98870 | 6520 ft | 291 kts | 134° |
| 2026-04-27 16:59 | 51.14662 | 14.01170 | 7236 ft | 292 kts | 133° |
| 2026-04-27 16:59 | 51.13231 | 14.03490 | 7925 ft | 294 kts | 133° |
| 2026-04-27 16:59 | 51.11806 | 14.05818 | 8549 ft | 297 kts | 132° |
| 2026-04-27 17:00 | 51.09312 | 14.09654 | 9579 ft | 305 kts | 142° |
| 2026-04-27 17:00 | 51.06683 | 14.11477 | 10128 ft | 320 kts | 172° |
| 2026-04-27 17:00 | 51.04424 | 14.11292 | 10360 ft | 332 kts | 197° |
| 2026-04-27 17:01 | 51.02341 | 14.09641 | 10596 ft | 341 kts | 220° |
| 2026-04-27 17:01 | 51.00546 | 14.07089 | 10858 ft | 352 kts | 227° |
| 2026-04-27 17:01 | 50.98791 | 14.04324 | 11260 ft | 358 kts | 228° |
| 2026-04-27 17:01 | 50.97021 | 14.01545 | 11877 ft | 357 kts | 227° |
| 2026-04-27 17:02 | 50.95245 | 13.98789 | 12499 ft | 357 kts | 227° |
| 2026-04-27 17:02 | 50.93466 | 13.96054 | 13114 ft | 356 kts | 227° |
| 2026-04-27 17:02 | 50.91685 | 13.93329 | 13679 ft | 356 kts | 226° |
| 2026-04-27 17:02 | 50.89892 | 13.90597 | 14196 ft | 357 kts | 226° |
| 2026-04-27 17:03 | 50.88116 | 13.87898 | 14670 ft | 360 kts | 226° |
| 2026-04-27 17:03 | 50.86303 | 13.85145 | 15108 ft | 362 kts | 226° |
| 2026-04-27 17:03 | 50.84480 | 13.82383 | 15604 ft | 363 kts | 225° |
| 2026-04-27 17:03 | 50.82646 | 13.79610 | 16078 ft | 365 kts | 225° |
| 2026-04-27 17:04 | 50.80800 | 13.76821 | 16549 ft | 366 kts | 225° |
| 2026-04-27 17:04 | 50.78952 | 13.74032 | 16950 ft | 369 kts | 225° |
| 2026-04-27 17:04 | 50.77066 | 13.71242 | 17289 ft | 373 kts | 223° |
| 2026-04-27 17:04 | 50.75011 | 13.68779 | 17721 ft | 376 kts | 214° |
| 2026-04-27 17:05 | 50.72687 | 13.66877 | 18150 ft | 379 kts | 204° |
| 2026-04-27 17:05 | 50.70151 | 13.65687 | 18564 ft | 382 kts | 193° |
| 2026-04-27 17:05 | 50.67484 | 13.65274 | 18955 ft | 387 kts | 182° |
| 2026-04-27 17:05 | 50.64794 | 13.65662 | 19380 ft | 390 kts | 173° |
| 2026-04-27 17:06 | 50.62133 | 13.66535 | 19919 ft | 388 kts | 168° |
| 2026-04-27 17:06 | 50.59541 | 13.67582 | 20597 ft | 382 kts | 165° |
| 2026-04-27 17:06 | 50.56979 | 13.68700 | 21043 ft | 382 kts | 164° |
| 2026-04-27 17:06 | 50.54409 | 13.69842 | 21359 ft | 386 kts | 164° |
| 2026-04-27 17:07 | 50.51815 | 13.70979 | 21659 ft | 388 kts | 163° |
| 2026-04-27 17:07 | 50.49201 | 13.72103 | 21963 ft | 391 kts | 163° |
| 2026-04-27 17:07 | 50.46593 | 13.73200 | 22269 ft | 393 kts | 163° |
| 2026-04-27 17:07 | 50.43940 | 13.74301 | 22573 ft | 395 kts | 163° |
| 2026-04-27 17:08 | 50.41266 | 13.75400 | 22850 ft | 398 kts | 163° |
| 2026-04-27 17:08 | 50.38576 | 13.76500 | 23122 ft | 401 kts | 162° |
| 2026-04-27 17:08 | 50.35860 | 13.77608 | 23355 ft | 404 kts | 162° |
| 2026-04-27 17:08 | 50.33128 | 13.78723 | 23632 ft | 407 kts | 162° |
| 2026-04-27 17:09 | 50.30380 | 13.79845 | 23913 ft | 409 kts | 162° |
| 2026-04-27 17:09 | 50.27621 | 13.80970 | 24186 ft | 411 kts | 162° |
| 2026-04-27 17:09 | 50.24839 | 13.82104 | 24424 ft | 415 kts | 162° |
| 2026-04-27 17:09 | 50.22047 | 13.83242 | 24716 ft | 416 kts | 162° |
| 2026-04-27 17:10 | 50.19225 | 13.84390 | 24937 ft | 419 kts | 162° |
| 2026-04-27 17:10 | 50.16429 | 13.85525 | 25169 ft | 422 kts | 162° |
| 2026-04-27 17:10 | 50.13564 | 13.86687 | 25390 ft | 426 kts | 161° |
| 2026-04-27 17:10 | 50.10679 | 13.87855 | 25576 ft | 430 kts | 161° |
| 2026-04-27 17:11 | 50.07768 | 13.89033 | 25802 ft | 433 kts | 161° |
| 2026-04-27 17:11 | 50.01885 | 13.91409 | 26194 ft | 442 kts | 161° |
| 2026-04-27 17:11 | 49.98905 | 13.92610 | 26512 ft | 443 kts | 161° |
| 2026-04-27 17:12 | 49.92890 | 13.95028 | 26993 ft | 450 kts | 161° |
| 2026-04-27 17:12 | 49.89840 | 13.96254 | 27134 ft | 456 kts | 161° |
| 2026-04-27 17:12 | 49.86748 | 13.97496 | 27321 ft | 460 kts | 161° |
| 2026-04-27 17:13 | 49.83641 | 13.98739 | 27602 ft | 463 kts | 161° |
| 2026-04-27 17:13 | 49.80518 | 13.99985 | 27978 ft | 463 kts | 161° |
| 2026-04-27 17:13 | 49.77387 | 14.01233 | 28181 ft | 468 kts | 161° |
| 2026-04-27 17:13 | 49.74256 | 14.02483 | 28357 ft | 473 kts | 161° |
| 2026-04-27 17:14 | 49.71057 | 14.03757 | 28612 ft | 476 kts | 161° |
| 2026-04-27 17:14 | 49.67838 | 14.05037 | 28861 ft | 479 kts | 161° |
| 2026-04-27 17:14 | 49.64602 | 14.06322 | 29110 ft | 482 kts | 161° |
| 2026-04-27 17:14 | 49.61335 | 14.07618 | 29263 ft | 488 kts | 161° |
| 2026-04-27 17:15 | 49.58035 | 14.08925 | 29503 ft | 491 kts | 161° |
| 2026-04-27 17:15 | 49.54714 | 14.10238 | 29722 ft | 495 kts | 161° |
| 2026-04-27 17:15 | 49.51361 | 14.11562 | 29883 ft | 500 kts | 161° |
| 2026-04-27 17:15 | 49.47974 | 14.12898 | 30154 ft | 503 kts | 161° |
| 2026-04-27 17:16 | 49.44581 | 14.14232 | 30471 ft | 504 kts | 162° |
| 2026-04-27 17:16 | 49.41172 | 14.15571 | 30784 ft | 506 kts | 162° |
| 2026-04-27 17:16 | 49.37753 | 14.16913 | 31106 ft | 508 kts | 162° |
| 2026-04-27 17:16 | 49.34321 | 14.18258 | 31395 ft | 510 kts | 162° |
| 2026-04-27 17:17 | 49.30875 | 14.19607 | 31657 ft | 512 kts | 162° |
| 2026-04-27 17:17 | 49.27405 | 14.20963 | 31898 ft | 515 kts | 162° |
| 2026-04-27 17:17 | 49.23917 | 14.22325 | 32158 ft | 517 kts | 162° |
| 2026-04-27 17:18 | 49.16932 | 14.25046 | 32688 ft | 520 kts | 162° |
| 2026-04-27 17:18 | 49.13417 | 14.26413 | 32929 ft | 522 kts | 162° |
| 2026-04-27 17:18 | 49.09895 | 14.27780 | 33199 ft | 523 kts | 162° |
| 2026-04-27 17:18 | 49.06376 | 14.29142 | 33556 ft | 522 kts | 162° |
| 2026-04-27 17:19 | 49.02859 | 14.30501 | 33919 ft | 520 kts | 162° |
| 2026-04-27 17:19 | 48.99351 | 14.31855 | 34272 ft | 520 kts | 162° |
| 2026-04-27 17:19 | 48.95849 | 14.33205 | 34606 ft | 519 kts | 162° |
| 2026-04-27 17:19 | 48.92331 | 14.34513 | 34948 ft | 520 kts | 164° |
| 2026-04-27 17:20 | 48.88779 | 14.35564 | 35272 ft | 521 kts | 166° |
| 2026-04-27 17:20 | 48.85201 | 14.36461 | 35594 ft | 520 kts | 167° |
| 2026-04-27 17:20 | 48.81624 | 14.37306 | 35922 ft | 520 kts | 167° |
| 2026-04-27 17:20 | 48.78098 | 14.38132 | 36223 ft | 520 kts | 168° |
| 2026-04-27 17:21 | 48.74476 | 14.38584 | 36483 ft | 525 kts | 176° |
| 2026-04-27 17:21 | 48.70819 | 14.38279 | 36718 ft | 529 kts | 185° |
| 2026-04-27 17:21 | 48.67193 | 14.37248 | 36995 ft | 531 kts | 190° |
| 2026-04-27 17:21 | 48.63598 | 14.35971 | 37267 ft | 531 kts | 192° |
| 2026-04-27 17:22 | 48.60023 | 14.34579 | 37555 ft | 531 kts | 193° |
| 2026-04-27 17:22 | 48.56447 | 14.33141 | 37825 ft | 531 kts | 193° |
| 2026-04-27 17:22 | 48.52874 | 14.31699 | 38063 ft | 531 kts | 193° |
| 2026-04-27 17:22 | 48.49299 | 14.30272 | 38300 ft | 532 kts | 193° |
| 2026-04-27 17:23 | 48.45719 | 14.28862 | 38545 ft | 531 kts | 192° |
| 2026-04-27 17:23 | 48.42135 | 14.27466 | 38762 ft | 532 kts | 192° |
| 2026-04-27 17:23 | 48.38545 | 14.26080 | 38961 ft | 532 kts | 192° |
| 2026-04-27 17:23 | 48.34958 | 14.24704 | 39166 ft | 532 kts | 192° |
| 2026-04-27 17:24 | 48.31371 | 14.23329 | 39409 ft | 531 kts | 192° |
| 2026-04-27 17:24 | 48.27802 | 14.21962 | 39669 ft | 530 kts | 192° |
| 2026-04-27 17:24 | 48.24209 | 14.20588 | 39905 ft | 529 kts | 192° |
| 2026-04-27 17:24 | 48.20653 | 14.19229 | 40112 ft | 529 kts | 192° |
| 2026-04-27 17:25 | 48.17086 | 14.17868 | 40304 ft | 529 kts | 192° |
| 2026-04-27 17:25 | 48.13517 | 14.16509 | 40478 ft | 529 kts | 192° |
| 2026-04-27 17:25 | 48.09950 | 14.15152 | 40641 ft | 529 kts | 192° |
| 2026-04-27 17:25 | 48.06381 | 14.13797 | 40735 ft | 530 kts | 192° |
| 2026-04-27 17:26 | 47.99233 | 14.11087 | 40750 ft | 530 kts | 192° |
| 2026-04-27 17:26 | 47.92091 | 14.08387 | 40749 ft | 530 kts | 192° |
| 2026-04-27 17:27 | 47.84925 | 14.05686 | 40748 ft | 532 kts | 192° |
| 2026-04-27 17:27 | 47.77733 | 14.02984 | 40746 ft | 534 kts | 192° |
| 2026-04-27 17:28 | 47.70526 | 14.00283 | 40744 ft | 535 kts | 192° |
| 2026-04-27 17:29 | 47.59624 | 13.96210 | 40744 ft | 539 kts | 192° |
| 2026-04-27 17:29 | 47.52409 | 13.93524 | 40746 ft | 536 kts | 192° |
| 2026-04-27 17:30 | 47.45179 | 13.90840 | 40748 ft | 535 kts | 192° |
| 2026-04-27 17:30 | 47.34344 | 13.86835 | 40741 ft | 535 kts | 192° |
| 2026-04-27 17:31 | 47.27083 | 13.84138 | 40744 ft | 539 kts | 192° |
| 2026-04-27 17:31 | 47.19795 | 13.81443 | 40736 ft | 540 kts | 192° |
| 2026-04-27 17:32 | 47.08891 | 13.77482 | 40739 ft | 536 kts | 192° |
| 2026-04-27 17:33 | 47.01678 | 13.74861 | 40751 ft | 538 kts | 192° |
| 2026-04-27 17:33 | 46.94383 | 13.72208 | 40750 ft | 540 kts | 192° |
| 2026-04-27 17:34 | 46.87080 | 13.69557 | 40748 ft | 539 kts | 192° |
| 2026-04-27 17:34 | 46.79781 | 13.66915 | 40743 ft | 538 kts | 192° |
| 2026-04-27 17:35 | 46.73754 | 13.64736 | 40746 ft | 535 kts | 192° |
| 2026-04-27 17:35 | 46.65378 | 13.61722 | 40751 ft | 532 kts | 192° |
| 2026-04-27 17:36 | 46.59325 | 13.59554 | 40753 ft | 534 kts | 192° |
| 2026-04-27 17:36 | 46.52165 | 13.56988 | 40747 ft | 534 kts | 192° |
| 2026-04-27 17:37 | 46.44940 | 13.54407 | 40742 ft | 535 kts | 192° |
| 2026-04-27 17:37 | 46.37681 | 13.51891 | 40745 ft | 536 kts | 190° |
| 2026-04-27 17:38 | 46.30392 | 13.49722 | 40744 ft | 535 kts | 189° |
| 2026-04-27 17:38 | 46.23143 | 13.47487 | 40747 ft | 533 kts | 194° |
| 2026-04-27 17:39 | 46.16230 | 13.43517 | 40745 ft | 535 kts | 203° |
| 2026-04-27 17:39 | 46.09493 | 13.38942 | 40748 ft | 533 kts | 205° |
| 2026-04-27 17:40 | 46.02824 | 13.34301 | 40747 ft | 531 kts | 204° |
| 2026-04-27 17:40 | 45.96153 | 13.29705 | 40745 ft | 531 kts | 204° |
| 2026-04-27 17:41 | 45.89512 | 13.25177 | 40746 ft | 530 kts | 204° |
| 2026-04-27 17:41 | 45.82837 | 13.20651 | 40747 ft | 530 kts | 204° |
| 2026-04-27 17:42 | 45.76159 | 13.16135 | 40753 ft | 530 kts | 204° |
| 2026-04-27 17:42 | 45.69484 | 13.11633 | 40748 ft | 530 kts | 204° |
| 2026-04-27 17:43 | 45.62802 | 13.07135 | 40743 ft | 530 kts | 204° |
| 2026-04-27 17:43 | 45.56124 | 13.02653 | 40750 ft | 530 kts | 204° |
| 2026-04-27 17:44 | 45.49435 | 12.98175 | 40747 ft | 530 kts | 204° |
| 2026-04-27 17:44 | 45.42796 | 12.93742 | 40746 ft | 530 kts | 204° |
| 2026-04-27 17:45 | 45.36107 | 12.89249 | 40743 ft | 530 kts | 207° |
| 2026-04-27 17:45 | 45.32990 | 12.86433 | 40745 ft | 531 kts | 218° |
| 2026-04-27 17:45 | 45.30322 | 12.82810 | 40744 ft | 530 kts | 231° |
| 2026-04-27 17:46 | 45.25626 | 12.74734 | 40747 ft | 531 kts | 225° |
| 2026-04-27 17:46 | 45.20707 | 12.67002 | 40749 ft | 531 kts | 229° |
| 2026-04-27 17:47 | 45.15750 | 12.59230 | 40745 ft | 531 kts | 228° |
| 2026-04-27 17:47 | 45.10764 | 12.51509 | 40745 ft | 531 kts | 228° |
| 2026-04-27 17:48 | 45.05767 | 12.43805 | 40745 ft | 531 kts | 228° |
| 2026-04-27 17:48 | 45.00757 | 12.36096 | 40745 ft | 531 kts | 228° |
| 2026-04-27 17:49 | 44.95779 | 12.28450 | 40743 ft | 531 kts | 228° |
| 2026-04-27 17:49 | 44.90768 | 12.20776 | 40744 ft | 531 kts | 228° |
| 2026-04-27 17:50 | 44.85751 | 12.13112 | 40748 ft | 531 kts | 228° |
| 2026-04-27 17:50 | 44.78206 | 12.01627 | 40746 ft | 531 kts | 227° |
| 2026-04-27 17:51 | 44.73205 | 11.94042 | 40744 ft | 531 kts | 227° |
| 2026-04-27 17:51 | 44.68175 | 11.86434 | 40744 ft | 531 kts | 227° |
| 2026-04-27 17:52 | 44.63134 | 11.78828 | 40744 ft | 531 kts | 227° |
| 2026-04-27 17:52 | 44.58080 | 11.71248 | 40743 ft | 531 kts | 226° |
| 2026-04-27 17:53 | 44.52268 | 11.64983 | 40763 ft | 531 kts | 209° |
| 2026-04-27 17:53 | 44.45730 | 11.60106 | 40747 ft | 530 kts | 205° |
| 2026-04-27 17:54 | 44.39138 | 11.55568 | 40747 ft | 531 kts | 205° |
| 2026-04-27 17:54 | 44.32494 | 11.51011 | 40747 ft | 532 kts | 205° |
| 2026-04-27 17:55 | 44.25853 | 11.46414 | 40748 ft | 533 kts | 205° |
| 2026-04-27 17:55 | 44.19138 | 11.41972 | 40743 ft | 532 kts | 199° |
| 2026-04-27 17:56 | 44.11943 | 11.39892 | 40745 ft | 526 kts | 179° |
| 2026-04-27 17:56 | 44.04756 | 11.40832 | 40753 ft | 521 kts | 167° |
| 2026-04-27 17:57 | 43.97622 | 11.42599 | 40748 ft | 519 kts | 166° |
| 2026-04-27 17:57 | 43.90526 | 11.44439 | 40749 ft | 518 kts | 166° |
| 2026-04-27 17:58 | 43.83414 | 11.46213 | 40745 ft | 520 kts | 166° |
| 2026-04-27 17:58 | 43.76291 | 11.47936 | 40741 ft | 518 kts | 166° |
| 2026-04-27 17:59 | 43.69216 | 11.49630 | 40748 ft | 518 kts | 166° |
| 2026-04-27 17:59 | 43.62114 | 11.51329 | 40748 ft | 518 kts | 166° |
| 2026-04-27 18:00 | 43.54996 | 11.53029 | 40752 ft | 517 kts | 166° |
| 2026-04-27 18:00 | 43.47888 | 11.54725 | 40744 ft | 518 kts | 166° |
| 2026-04-27 18:01 | 43.40802 | 11.56412 | 40749 ft | 519 kts | 166° |
| 2026-04-27 18:01 | 43.33671 | 11.58104 | 40743 ft | 519 kts | 166° |
| 2026-04-27 18:02 | 43.26578 | 11.59783 | 40750 ft | 518 kts | 166° |
| 2026-04-27 18:02 | 43.19450 | 11.61417 | 40750 ft | 519 kts | 169° |
| 2026-04-27 18:03 | 43.12229 | 11.62373 | 40748 ft | 521 kts | 172° |
| 2026-04-27 18:03 | 43.04984 | 11.63096 | 40743 ft | 521 kts | 172° |
| 2026-04-27 18:04 | 42.97755 | 11.63898 | 40752 ft | 521 kts | 172° |
| 2026-04-27 18:04 | 42.90521 | 11.64777 | 40742 ft | 524 kts | 171° |
| 2026-04-27 18:05 | 42.83285 | 11.65681 | 40753 ft | 526 kts | 171° |
| 2026-04-27 18:05 | 42.75996 | 11.66587 | 40741 ft | 525 kts | 171° |
| 2026-04-27 18:06 | 42.68706 | 11.67487 | 40747 ft | 524 kts | 171° |
| 2026-04-27 18:06 | 42.61485 | 11.68375 | 40742 ft | 522 kts | 171° |
| 2026-04-27 18:07 | 42.54261 | 11.69262 | 40752 ft | 521 kts | 171° |
| 2026-04-27 18:07 | 42.47043 | 11.70147 | 40749 ft | 521 kts | 171° |
| 2026-04-27 18:08 | 42.39819 | 11.71030 | 40741 ft | 520 kts | 171° |
| 2026-04-27 18:08 | 42.32610 | 11.71909 | 40750 ft | 519 kts | 171° |
| 2026-04-27 18:09 | 42.25358 | 11.72286 | 40742 ft | 524 kts | 182° |
| 2026-04-27 18:09 | 42.18269 | 11.69879 | 40744 ft | 530 kts | 203° |
| 2026-04-27 18:10 | 42.11959 | 11.64838 | 40746 ft | 531 kts | 213° |
| 2026-04-27 18:10 | 42.05872 | 11.59205 | 40744 ft | 531 kts | 214° |
| 2026-04-27 18:11 | 41.99943 | 11.53240 | 40746 ft | 531 kts | 218° |
| 2026-04-27 18:11 | 41.94189 | 11.46983 | 40745 ft | 531 kts | 219° |
| 2026-04-27 18:12 | 41.88445 | 11.40714 | 40750 ft | 532 kts | 219° |
| 2026-04-27 18:12 | 41.82732 | 11.34489 | 40746 ft | 532 kts | 219° |
| 2026-04-27 18:13 | 41.76982 | 11.28237 | 40748 ft | 532 kts | 219° |
| 2026-04-27 18:13 | 41.71250 | 11.22019 | 40745 ft | 532 kts | 219° |
| 2026-04-27 18:14 | 41.65495 | 11.15791 | 40745 ft | 532 kts | 219° |
| 2026-04-27 18:14 | 41.59739 | 11.09576 | 40745 ft | 532 kts | 219° |
| 2026-04-27 18:15 | 41.53976 | 11.03368 | 40745 ft | 532 kts | 219° |
| 2026-04-27 18:15 | 41.48205 | 10.97167 | 40748 ft | 532 kts | 219° |
| 2026-04-27 18:16 | 41.42437 | 10.90984 | 40761 ft | 532 kts | 219° |
| 2026-04-27 18:16 | 41.36695 | 10.84841 | 40745 ft | 532 kts | 218° |
| 2026-04-27 18:17 | 41.30925 | 10.78685 | 40747 ft | 532 kts | 218° |
| 2026-04-27 18:17 | 41.25140 | 10.72526 | 40746 ft | 532 kts | 218° |
| 2026-04-27 18:18 | 41.19387 | 10.66416 | 40745 ft | 532 kts | 218° |
| 2026-04-27 18:18 | 41.14581 | 10.61323 | 40745 ft | 532 kts | 218° |
| 2026-04-27 18:19 | 41.08792 | 10.55201 | 40745 ft | 532 kts | 218° |
| 2026-04-27 18:19 | 41.03005 | 10.49095 | 40744 ft | 531 kts | 218° |
| 2026-04-27 18:20 | 40.97208 | 10.42992 | 40746 ft | 531 kts | 218° |
| 2026-04-27 18:20 | 40.91414 | 10.36907 | 40745 ft | 531 kts | 218° |
| 2026-04-27 18:21 | 40.88569 | 10.33924 | 40428 ft | 526 kts | 218° |
| 2026-04-27 18:21 | 40.85705 | 10.30925 | 39767 ft | 525 kts | 218° |
| 2026-04-27 18:21 | 40.82828 | 10.27915 | 39049 ft | 526 kts | 218° |
| 2026-04-27 18:21 | 40.79946 | 10.24904 | 38328 ft | 526 kts | 218° |
| 2026-04-27 18:22 | 40.77070 | 10.21903 | 37600 ft | 526 kts | 218° |
| 2026-04-27 18:22 | 40.74202 | 10.18913 | 36871 ft | 526 kts | 218° |
| 2026-04-27 18:22 | 40.71331 | 10.15923 | 36116 ft | 526 kts | 218° |
| 2026-04-27 18:22 | 40.68493 | 10.12971 | 35376 ft | 526 kts | 218° |
| 2026-04-27 18:23 | 40.65612 | 10.09978 | 34554 ft | 527 kts | 218° |
| 2026-04-27 18:23 | 40.62728 | 10.06984 | 33703 ft | 528 kts | 218° |
| 2026-04-27 18:23 | 40.59834 | 10.03985 | 32816 ft | 530 kts | 218° |
| 2026-04-27 18:23 | 40.56928 | 10.00976 | 31898 ft | 532 kts | 218° |
| 2026-04-27 18:24 | 40.54013 | 9.97961 | 30951 ft | 534 kts | 218° |
| 2026-04-27 18:24 | 40.51081 | 9.94932 | 29964 ft | 535 kts | 218° |
| 2026-04-27 18:24 | 40.48144 | 9.91901 | 28999 ft | 536 kts | 218° |
| 2026-04-27 18:24 | 40.45212 | 9.88879 | 28189 ft | 534 kts | 218° |
| 2026-04-27 18:25 | 40.42339 | 9.85917 | 27514 ft | 528 kts | 217° |
| 2026-04-27 18:25 | 40.39466 | 9.82959 | 26908 ft | 521 kts | 216° |
| 2026-04-27 18:25 | 40.36639 | 9.80052 | 26339 ft | 513 kts | 216° |
| 2026-04-27 18:25 | 40.33849 | 9.77187 | 25773 ft | 504 kts | 215° |
| 2026-04-27 18:26 | 40.31105 | 9.74373 | 25225 ft | 496 kts | 214° |
| 2026-04-27 18:26 | 40.28407 | 9.71610 | 24676 ft | 487 kts | 214° |
| 2026-04-27 18:26 | 40.25761 | 9.68902 | 24129 ft | 478 kts | 214° |
| 2026-04-27 18:26 | 40.23187 | 9.66273 | 23585 ft | 470 kts | 214° |
| 2026-04-27 18:27 | 40.20633 | 9.63666 | 23052 ft | 461 kts | 213° |
| 2026-04-27 18:27 | 40.18133 | 9.61117 | 22630 ft | 448 kts | 214° |
| 2026-04-27 18:27 | 40.15720 | 9.58661 | 22334 ft | 433 kts | 215° |
| 2026-04-27 18:27 | 40.13364 | 9.56268 | 21792 ft | 424 kts | 215° |
| 2026-04-27 18:28 | 40.11046 | 9.53911 | 20948 ft | 422 kts | 215° |
| 2026-04-27 18:28 | 40.08738 | 9.51569 | 20264 ft | 417 kts | 216° |
| 2026-04-27 18:28 | 40.06461 | 9.49263 | 19567 ft | 411 kts | 218° |
| 2026-04-27 18:28 | 40.04211 | 9.46986 | 18690 ft | 409 kts | 219° |
| 2026-04-27 18:29 | 40.01964 | 9.44709 | 17829 ft | 408 kts | 219° |
| 2026-04-27 18:29 | 39.99727 | 9.42441 | 17040 ft | 406 kts | 220° |
| 2026-04-27 18:29 | 39.97503 | 9.40189 | 16315 ft | 401 kts | 220° |
| 2026-04-27 18:29 | 39.95308 | 9.37969 | 15487 ft | 399 kts | 220° |
| 2026-04-27 18:30 | 39.93127 | 9.35765 | 14431 ft | 402 kts | 220° |
| 2026-04-27 18:30 | 39.90907 | 9.33522 | 13480 ft | 404 kts | 220° |
| 2026-04-27 18:30 | 39.88696 | 9.31291 | 12727 ft | 399 kts | 220° |
| 2026-04-27 18:30 | 39.86498 | 9.29072 | 11903 ft | 399 kts | 220° |
| 2026-04-27 18:31 | 39.84336 | 9.26897 | 11532 ft | 385 kts | 220° |
| 2026-04-27 18:31 | 39.82254 | 9.24806 | 11254 ft | 370 kts | 220° |
| 2026-04-27 18:31 | 39.80257 | 9.22800 | 11007 ft | 356 kts | 220° |
| 2026-04-27 18:31 | 39.78338 | 9.20870 | 10779 ft | 341 kts | 220° |
| 2026-04-27 18:32 | 39.76499 | 9.19020 | 10531 ft | 328 kts | 220° |
| 2026-04-27 18:32 | 39.74720 | 9.17238 | 10299 ft | 316 kts | 220° |
| 2026-04-27 18:32 | 39.72999 | 9.15515 | 10077 ft | 307 kts | 220° |
| 2026-04-27 18:32 | 39.71320 | 9.13832 | 9681 ft | 303 kts | 220° |
| 2026-04-27 18:33 | 39.69676 | 9.12170 | 9227 ft | 301 kts | 220° |
| 2026-04-27 18:33 | 39.68028 | 9.10501 | 8800 ft | 299 kts | 220° |
| 2026-04-27 18:33 | 39.66392 | 9.08844 | 8396 ft | 297 kts | 220° |
| 2026-04-27 18:33 | 39.64772 | 9.07205 | 7998 ft | 294 kts | 220° |
| 2026-04-27 18:34 | 39.63166 | 9.05579 | 7571 ft | 292 kts | 220° |
| 2026-04-27 18:34 | 39.61570 | 9.03963 | 7145 ft | 290 kts | 220° |
| 2026-04-27 18:34 | 39.59987 | 9.02360 | 6726 ft | 288 kts | 220° |
| 2026-04-27 18:34 | 39.58415 | 9.00769 | 6317 ft | 286 kts | 220° |
| 2026-04-27 18:35 | 39.56856 | 8.99191 | 5907 ft | 283 kts | 220° |
| 2026-04-27 18:35 | 39.55308 | 8.97624 | 5500 ft | 281 kts | 220° |
| 2026-04-27 18:35 | 39.53784 | 8.96080 | 5250 ft | 273 kts | 220° |
| 2026-04-27 18:35 | 39.52319 | 8.94599 | 5083 ft | 262 kts | 220° |
| 2026-04-27 18:36 | 39.50904 | 8.93176 | 4932 ft | 251 kts | 220° |
| 2026-04-27 18:36 | 39.49554 | 8.91822 | 4799 ft | 241 kts | 220° |
| 2026-04-27 18:36 | 39.48252 | 8.90523 | 4666 ft | 231 kts | 220° |
| 2026-04-27 18:36 | 39.46875 | 8.89585 | 4512 ft | 225 kts | 198° |
| 2026-04-27 18:37 | 39.45367 | 8.89219 | 4359 ft | 217 kts | 184° |
| 2026-04-27 18:37 | 39.43901 | 8.89487 | 4197 ft | 211 kts | 161° |
| 2026-04-27 18:37 | 39.42574 | 8.90246 | 3975 ft | 207 kts | 152° |
| 2026-04-27 18:37 | 39.41312 | 8.91128 | 3736 ft | 205 kts | 150° |
| 2026-04-27 18:38 | 39.40069 | 8.92041 | 3519 ft | 205 kts | 149° |
| 2026-04-27 18:38 | 39.38817 | 8.92899 | 3276 ft | 201 kts | 160° |
| 2026-04-27 18:38 | 39.37478 | 8.92999 | 3095 ft | 190 kts | 192° |
| 2026-04-27 18:38 | 39.36192 | 8.92835 | 2843 ft | 184 kts | 170° |
| 2026-04-27 18:39 | 39.35116 | 8.93634 | 2625 ft | 177 kts | 135° |
| 2026-04-27 18:39 | 39.34282 | 8.94755 | 2406 ft | 168 kts | 132° |
| 2026-04-27 18:39 | 39.33462 | 8.95784 | 2134 ft | 161 kts | 136° |
| 2026-04-27 18:39 | 39.32630 | 8.96751 | 1803 ft | 160 kts | 136° |
| 2026-04-27 18:40 | 39.31820 | 8.97704 | 1474 ft | 159 kts | 136° |
| 2026-04-27 18:40 | 39.31008 | 8.98618 | 1281 ft | 149 kts | 139° |
| 2026-04-27 18:40 | 39.30252 | 8.99484 | 1100 ft | 143 kts | 136° |
| 2026-04-27 18:40 | 39.29523 | 9.00351 | 941 ft | 142 kts | 137° |
| 2026-04-27 18:41 | 39.28786 | 9.01201 | 778 ft | 142 kts | 137° |
| 2026-04-27 18:41 | 39.28057 | 9.02040 | 573 ft | 141 kts | 137° |
| 2026-04-27 18:41 | 39.27336 | 9.02888 | 355 ft | 139 kts | 137° |
| 2026-04-27 18:41 | 39.26614 | 9.03723 | 174 ft | 138 kts | 138° |
| 2026-04-27 18:42 | 39.25898 | 9.04554 | 32 ft | 138 kts | 137° |
| 2026-04-27 18:42 | 39.25457 | 9.05069 | 29 ft | 116 kts | 137° |
| 2026-04-27 18:42 | 39.25034 | 9.05563 | 29 ft | 2 kts | 137° |
| 2026-04-27 18:42 | 39.25023 | 9.05576 | 26 ft | 10 kts | 139° |